createdAt,value
2023-04-26T00:00:51.000Z,1011.2
2023-04-26T00:02:08.000Z,1011.3
2023-04-26T00:03:24.000Z,1011.3
2023-04-26T00:04:40.000Z,1011.3
2023-04-26T00:05:56.000Z,1011.3
2023-04-26T00:07:13.000Z,1011.3
2023-04-26T00:08:28.000Z,1011.3
2023-04-26T00:09:44.000Z,1011.3
2023-04-26T00:11:01.000Z,1011.4
2023-04-26T00:12:17.000Z,1011.4
2023-04-26T00:13:33.000Z,1011.3
2023-04-26T00:14:49.000Z,1011.4
2023-04-26T00:16:06.000Z,1011.3
2023-04-26T00:17:22.000Z,1011.4
2023-04-26T00:18:38.000Z,1011.3
2023-04-26T00:19:55.391Z,1011.3
2023-04-26T00:21:11.421Z,1011.3
2023-04-26T00:22:27.000Z,1011.3
2023-04-26T00:23:43.000Z,1011.4
2023-04-26T00:24:59.000Z,1011.4
2023-04-26T00:26:15.000Z,1011.3
2023-04-26T00:27:31.000Z,1011.3
2023-04-26T00:28:48.000Z,1011.4
2023-04-26T00:30:04.000Z,1011.3
2023-04-26T00:31:20.000Z,1011.4
2023-04-26T00:32:37.000Z,1011.3
2023-04-26T00:33:53.000Z,1011.4
2023-04-26T00:35:09.000Z,1011.3
2023-04-26T00:36:25.000Z,1011.3
2023-04-26T00:37:42.000Z,1011.3
2023-04-26T00:38:58.000Z,1011.3
2023-04-26T00:40:14.000Z,1011.4
2023-04-26T00:41:30.310Z,1011.3
2023-04-26T00:42:46.000Z,1011.3
2023-04-26T00:44:02.000Z,1011.3
2023-04-26T00:45:19.162Z,1011.3
2023-04-26T00:46:35.000Z,1011.4
2023-04-26T00:47:51.000Z,1011.2
2023-04-26T00:49:07.000Z,1011.3
2023-04-26T00:50:24.000Z,1011.2
2023-04-26T00:51:40.000Z,1011.2
2023-04-26T00:52:56.000Z,1011.1
2023-04-26T00:54:12.000Z,1011.1
2023-04-26T00:55:29.000Z,1011.1
2023-04-26T00:56:45.000Z,1011.1
2023-04-26T00:58:00.000Z,1011.1
2023-04-26T00:59:17.000Z,1011.1
2023-04-26T01:00:33.000Z,1011.1
2023-04-26T01:01:49.000Z,1011
2023-04-26T01:03:05.000Z,1011.1
2023-04-26T01:04:22.000Z,1011.2
2023-04-26T01:05:38.000Z,1011.2
2023-04-26T01:06:54.000Z,1011
2023-04-26T01:08:11.000Z,1011.2
2023-04-26T01:09:27.000Z,1011.2
2023-04-26T01:10:43.955Z,1011.2
2023-04-26T01:11:59.000Z,1011.2
2023-04-26T01:13:16.000Z,1011.1
2023-04-26T01:14:31.000Z,1011.2
2023-04-26T01:15:47.000Z,1011.2
2023-04-26T01:17:04.000Z,1011.2
2023-04-26T01:18:20.000Z,1011.2
2023-04-26T01:19:36.000Z,1011.2
2023-04-26T01:20:53.000Z,1011.2
2023-04-26T01:22:09.000Z,1011.3
2023-04-26T01:23:25.000Z,1011.3
2023-04-26T01:24:41.000Z,1011.3
2023-04-26T01:25:58.000Z,1011.3
2023-04-26T01:27:14.000Z,1011.3
2023-04-26T01:28:30.000Z,1011.3
2023-04-26T01:29:47.000Z,1011.3
2023-04-26T01:31:02.000Z,1011.3
2023-04-26T01:32:18.000Z,1011.3
2023-04-26T01:33:34.000Z,1011.2
2023-04-26T01:34:51.000Z,1011.3
2023-04-26T01:36:07.726Z,1011.3
2023-04-26T01:37:23.000Z,1011.3
2023-04-26T01:38:40.000Z,1011.4
2023-04-26T01:39:56.000Z,1011.3
2023-04-26T01:41:12.000Z,1011.3
2023-04-26T01:42:28.000Z,1011.4
2023-04-26T01:43:45.000Z,1011.3
2023-04-26T01:45:01.000Z,1011.3
2023-04-26T01:46:17.000Z,1011.3
2023-04-26T01:47:33.321Z,1011.3
2023-04-26T01:48:49.000Z,1011.3
2023-04-26T01:50:05.000Z,1011.3
2023-04-26T01:51:21.000Z,1011.2
2023-04-26T01:52:38.000Z,1011.2
2023-04-26T01:53:54.000Z,1011.3
2023-04-26T01:55:11.053Z,1011.4
2023-04-26T01:56:27.000Z,1011.3
2023-04-26T01:57:43.000Z,1011.3
2023-04-26T01:58:59.000Z,1011.3
2023-04-26T02:00:15.000Z,1011.3
2023-04-26T02:01:31.516Z,1011.3
2023-04-26T02:02:46.000Z,1011.3
2023-04-26T02:04:02.000Z,1011.3
2023-04-26T02:05:19.000Z,1011.4
2023-04-26T02:06:34.000Z,1011.4
2023-04-26T02:07:49.000Z,1011.4
2023-04-26T02:09:06.000Z,1011.4
2023-04-26T02:10:22.000Z,1011.4
2023-04-26T02:11:38.858Z,1011.4
2023-04-26T02:12:54.000Z,1011.4
2023-04-26T02:14:11.444Z,1011.4
2023-04-26T02:15:27.000Z,1011.4
2023-04-26T02:16:43.000Z,1011.4
2023-04-26T02:18:00.000Z,1011.4
2023-04-26T02:19:16.000Z,1011.4
2023-04-26T02:20:32.000Z,1011.3
2023-04-26T02:21:48.000Z,1011.3
2023-04-26T02:23:05.000Z,1011.4
2023-04-26T02:24:20.000Z,1011.4
2023-04-26T02:25:36.000Z,1011.4
2023-04-26T02:26:53.000Z,1011.4
2023-04-26T02:28:09.000Z,1011.4
2023-04-26T02:29:25.000Z,1011.4
2023-04-26T02:30:41.000Z,1011.5
2023-04-26T02:31:58.000Z,1011.4
2023-04-26T02:33:13.000Z,1011.5
2023-04-26T02:34:28.000Z,1011.5
2023-04-26T02:35:45.000Z,1011.5
2023-04-26T02:37:00.000Z,1011.5
2023-04-26T02:38:15.000Z,1011.4
2023-04-26T02:39:32.299Z,1011.5
2023-04-26T02:40:48.000Z,1011.5
2023-04-26T02:42:04.000Z,1011.5
2023-04-26T02:43:20.000Z,1011.5
2023-04-26T02:44:37.000Z,1011.5
2023-04-26T02:45:53.000Z,1011.4
2023-04-26T02:47:09.000Z,1011.4
2023-04-26T02:48:26.000Z,1011.4
2023-04-26T02:49:42.000Z,1011.4
2023-04-26T02:50:58.000Z,1011.5
2023-04-26T02:52:15.194Z,1011.5
2023-04-26T02:53:31.000Z,1011.5
2023-04-26T02:54:47.000Z,1011.5
2023-04-26T02:56:02.000Z,1011.5
2023-04-26T02:57:19.000Z,1011.5
2023-04-26T02:58:35.000Z,1011.4
2023-04-26T02:59:51.000Z,1011.4
2023-04-26T03:01:07.000Z,1011.4
2023-04-26T03:02:24.000Z,1011.4
2023-04-26T03:03:39.000Z,1011.4
2023-04-26T03:04:54.000Z,1011.4
2023-04-26T03:06:11.000Z,1011.4
2023-04-26T03:07:26.000Z,1011.3
2023-04-26T03:08:41.000Z,1011.4
2023-04-26T03:09:58.000Z,1011.3
2023-04-26T03:11:14.000Z,1011.4
2023-04-26T03:12:30.000Z,1011.4
2023-04-26T03:13:46.000Z,1011.4
2023-04-26T03:15:03.000Z,1011.4
2023-04-26T03:16:19.000Z,1011.4
2023-04-26T03:17:36.033Z,1011.4
2023-04-26T03:18:52.000Z,1011.4
2023-04-26T03:20:08.000Z,1011.4
2023-04-26T03:21:24.000Z,1011.4
2023-04-26T03:22:40.000Z,1011.4
2023-04-26T03:23:57.000Z,1011.4
2023-04-26T03:25:12.000Z,1011.4
2023-04-26T03:26:28.000Z,1011.4
2023-04-26T03:27:45.000Z,1011.4
2023-04-26T03:29:01.000Z,1011.4
2023-04-26T03:30:17.000Z,1011.4
2023-04-26T03:31:33.000Z,1011.3
2023-04-26T03:32:50.000Z,1011.4
2023-04-26T03:34:05.000Z,1011.4
2023-04-26T03:35:20.000Z,1011.4
2023-04-26T03:36:37.000Z,1011.4
2023-04-26T03:37:52.000Z,1011.4
2023-04-26T03:39:07.000Z,1011.4
2023-04-26T03:40:23.000Z,1011.4
2023-04-26T03:41:40.000Z,1011.4
2023-04-26T03:42:56.000Z,1011.3
2023-04-26T03:44:12.000Z,1011.4
2023-04-26T03:45:28.000Z,1011.4
2023-04-26T03:46:45.000Z,1011.3
2023-04-26T03:48:01.000Z,1011.4
2023-04-26T03:49:17.000Z,1011.3
2023-04-26T03:50:33.000Z,1011.3
2023-04-26T03:51:50.000Z,1011.3
2023-04-26T03:53:06.000Z,1011.3
2023-04-26T03:54:22.000Z,1011.4
2023-04-26T03:56:54.000Z,1011.3
2023-04-26T03:58:10.000Z,1011.3
2023-04-26T03:59:26.000Z,1011.3
2023-04-26T04:00:42.000Z,1011.3
2023-04-26T04:01:59.000Z,1011.3
2023-04-26T04:03:15.000Z,1011.3
2023-04-26T04:04:31.000Z,1011.3
2023-04-26T04:05:47.000Z,1011.3
2023-04-26T04:07:03.000Z,1011.3
2023-04-26T04:08:20.000Z,1011.3
2023-04-26T04:09:36.000Z,1011.3
2023-04-26T04:10:52.000Z,1011.4
2023-04-26T04:12:07.000Z,1011.3
2023-04-26T04:13:24.000Z,1011.2
2023-04-26T04:14:40.000Z,1011.3
2023-04-26T04:15:56.000Z,1011.3
2023-04-26T04:17:12.000Z,1011.3
2023-04-26T04:18:29.000Z,1011.3
2023-04-26T04:19:45.000Z,1011.3
2023-04-26T04:21:01.000Z,1011.3
2023-04-26T04:22:17.000Z,1011.3
2023-04-26T04:23:33.000Z,1011.3
2023-04-26T04:24:49.518Z,1011.3
2023-04-26T04:26:05.000Z,1011.3
2023-04-26T04:27:21.000Z,1011.3
2023-04-26T04:28:37.000Z,1011.3
2023-04-26T04:29:54.455Z,1011.3
2023-04-26T04:31:10.000Z,1011.3
2023-04-26T04:32:26.000Z,1011.3
2023-04-26T04:33:42.000Z,1011.2
2023-04-26T04:34:59.000Z,1011.3
2023-04-26T04:36:15.000Z,1011.3
2023-04-26T04:37:31.000Z,1011.3
2023-04-26T04:38:47.000Z,1011.4
2023-04-26T04:40:03.000Z,1011.4
2023-04-26T04:41:19.000Z,1011.4
2023-04-26T04:42:35.000Z,1011.4
2023-04-26T04:43:51.000Z,1011.4
2023-04-26T04:45:08.000Z,1011.4
2023-04-26T04:46:24.502Z,1011.4
2023-04-26T04:47:40.737Z,1011.4
2023-04-26T04:48:56.000Z,1011.4
2023-04-26T04:50:13.212Z,1011.4
2023-04-26T04:51:29.444Z,1011.4
2023-04-26T04:52:45.000Z,1011.4
2023-04-26T04:54:01.000Z,1011.4
2023-04-26T04:55:17.000Z,1011.4
2023-04-26T04:56:33.000Z,1011.4
2023-04-26T04:57:49.000Z,1011.3
2023-04-26T04:59:05.869Z,1011.4
2023-04-26T05:00:22.097Z,1011.4
2023-04-26T05:01:38.000Z,1011.5
2023-04-26T05:02:54.000Z,1011.5
2023-04-26T05:04:10.000Z,1011.5
2023-04-26T05:05:26.000Z,1011.5
2023-04-26T05:06:43.000Z,1011.4
2023-04-26T05:07:59.000Z,1011.5
2023-04-26T05:09:15.000Z,1011.4
2023-04-26T05:10:31.000Z,1011.5
2023-04-26T05:11:47.000Z,1011.4
2023-04-26T05:13:03.000Z,1011.4
2023-04-26T05:14:19.000Z,1011.4
2023-04-26T05:15:35.000Z,1011.4
2023-04-26T05:16:51.000Z,1011.4
2023-04-26T05:18:08.386Z,1011.4
2023-04-26T05:19:24.000Z,1011.5
2023-04-26T05:20:40.000Z,1011.4
2023-04-26T05:21:56.000Z,1011.5
2023-04-26T05:23:13.000Z,1011.4
2023-04-26T05:24:28.000Z,1011.5
2023-04-26T05:25:43.000Z,1011.5
2023-04-26T05:26:59.000Z,1011.5
2023-04-26T05:28:16.000Z,1011.5
2023-04-26T05:29:32.000Z,1011.5
2023-04-26T05:30:48.000Z,1011.6
2023-04-26T05:32:03.000Z,1011.5
2023-04-26T05:33:19.000Z,1011.5
2023-04-26T05:34:35.000Z,1011.5
2023-04-26T05:35:51.000Z,1011.5
2023-04-26T05:38:23.000Z,1011.6
2023-04-26T05:39:40.000Z,1011.6
2023-04-26T05:40:56.686Z,1011.6
2023-04-26T05:42:12.000Z,1011.6
2023-04-26T05:43:28.000Z,1011.6
2023-04-26T05:44:45.000Z,1011.7
2023-04-26T05:46:01.000Z,1011.6
2023-04-26T05:47:17.000Z,1011.7
2023-04-26T05:48:34.086Z,1011.7
2023-04-26T05:49:49.346Z,1011.7
2023-04-26T05:51:05.000Z,1011.7
2023-04-26T05:52:21.000Z,1011.7
2023-04-26T05:53:37.000Z,1011.7
2023-04-26T05:54:54.000Z,1011.7
2023-04-26T05:56:10.496Z,1011.7
2023-04-26T05:57:26.000Z,1011.7
2023-04-26T05:58:42.000Z,1011.8
2023-04-26T05:59:58.000Z,1011.8
2023-04-26T06:01:15.000Z,1011.8
2023-04-26T06:02:30.000Z,1011.8
2023-04-26T06:03:45.934Z,1011.8
2023-04-26T06:05:00.000Z,1011.9
2023-04-26T06:06:16.000Z,1011.8
2023-04-26T06:07:32.000Z,1011.9
2023-04-26T06:08:48.000Z,1011.9
2023-04-26T06:10:04.000Z,1011.9
2023-04-26T06:11:21.396Z,1011.9
2023-04-26T06:12:37.000Z,1011.9
2023-04-26T06:13:53.000Z,1011.9
2023-04-26T06:15:10.090Z,1011.9
2023-04-26T06:16:26.000Z,1011.8
2023-04-26T06:17:42.000Z,1011.9
2023-04-26T06:18:58.786Z,1011.9
2023-04-26T06:20:14.000Z,1011.9
2023-04-26T06:21:31.000Z,1012
2023-04-26T06:22:46.518Z,1011.9
2023-04-26T06:24:02.000Z,1011.9
2023-04-26T06:25:18.000Z,1011.9
2023-04-26T06:26:35.199Z,1011.9
2023-04-26T06:27:51.450Z,1011.9
2023-04-26T06:29:07.000Z,1011.9
2023-04-26T06:30:23.000Z,1011.9
2023-04-26T06:31:39.000Z,1011.9
2023-04-26T06:32:56.000Z,1011.9
2023-04-26T06:34:12.595Z,1011.9
2023-04-26T06:35:28.000Z,1011.9
2023-04-26T06:36:44.000Z,1011.9
2023-04-26T06:38:01.000Z,1011.9
2023-04-26T06:39:16.571Z,1011.9
2023-04-26T06:40:32.000Z,1011.9
2023-04-26T06:41:48.000Z,1011.9
2023-04-26T06:43:05.000Z,1011.9
2023-04-26T06:44:21.000Z,1011.9
2023-04-26T06:45:37.000Z,1011.9
2023-04-26T06:46:53.000Z,1011.9
2023-04-26T06:48:08.000Z,1011.9
2023-04-26T06:49:24.476Z,1011.9
2023-04-26T06:50:40.000Z,1011.9
2023-04-26T06:51:56.941Z,1012
2023-04-26T06:53:12.000Z,1012
2023-04-26T06:54:29.405Z,1012
2023-04-26T06:55:44.000Z,1011.9
2023-04-26T06:56:59.908Z,1012
2023-04-26T06:58:15.000Z,1011.9
2023-04-26T06:59:32.000Z,1011.9
2023-04-26T07:00:48.000Z,1011.9
2023-04-26T07:02:04.840Z,1011.8
2023-04-26T07:03:20.000Z,1011.9
2023-04-26T07:04:37.323Z,1011.9
2023-04-26T07:05:53.544Z,1011.9
2023-04-26T07:07:09.000Z,1011.9
2023-04-26T07:08:25.000Z,1011.9
2023-04-26T07:09:42.000Z,1011.9
2023-04-26T07:10:58.499Z,1011.9
2023-04-26T07:12:14.719Z,1011.9
2023-04-26T07:13:29.000Z,1011.9
2023-04-26T07:14:45.000Z,1012
2023-04-26T07:16:02.000Z,1011.9
2023-04-26T07:17:18.675Z,1011.8
2023-04-26T07:18:34.000Z,1011.9
2023-04-26T07:19:51.143Z,1011.9
2023-04-26T07:21:07.000Z,1011.9
2023-04-26T07:22:22.000Z,1011.9
2023-04-26T07:23:37.000Z,1011.9
2023-04-26T07:24:52.000Z,1011.9
2023-04-26T07:26:08.000Z,1011.9
2023-04-26T07:27:24.632Z,1011.9
2023-04-26T07:28:40.000Z,1011.9
2023-04-26T07:29:56.000Z,1011.9
2023-04-26T07:31:13.000Z,1011.9
2023-04-26T07:32:29.000Z,1011.9
2023-04-26T07:33:45.000Z,1011.8
2023-04-26T07:35:02.034Z,1011.9
2023-04-26T07:36:18.000Z,1011.9
2023-04-26T07:37:34.000Z,1011.9
2023-04-26T07:38:50.000Z,1011.9
2023-04-26T07:40:06.000Z,1011.9
2023-04-26T07:41:22.000Z,1011.9
2023-04-26T07:42:38.423Z,1011.9
2023-04-26T07:43:54.000Z,1011.9
2023-04-26T07:45:10.000Z,1011.9
2023-04-26T07:46:26.000Z,1011.9
2023-04-26T07:47:43.000Z,1011.9
2023-04-26T07:48:59.000Z,1011.9
2023-04-26T07:50:15.839Z,1011.9
2023-04-26T07:51:31.000Z,1012
2023-04-26T07:52:48.000Z,1012
2023-04-26T07:54:04.000Z,1012
2023-04-26T07:55:20.000Z,1012
2023-04-26T07:56:37.021Z,1012
2023-04-26T07:57:52.000Z,1012
2023-04-26T07:59:08.000Z,1012
2023-04-26T08:00:24.000Z,1012
2023-04-26T08:01:40.000Z,1012.1
2023-04-26T08:02:56.000Z,1012.1
2023-04-26T08:05:29.000Z,1012
2023-04-26T08:06:45.000Z,1012
2023-04-26T08:08:01.000Z,1012
2023-04-26T08:09:18.000Z,1012
2023-04-26T08:10:34.000Z,1012
2023-04-26T08:11:50.000Z,1012.1
2023-04-26T08:13:06.000Z,1012
2023-04-26T08:14:23.000Z,1012
2023-04-26T08:15:38.000Z,1012
2023-04-26T08:16:54.000Z,1012
2023-04-26T08:18:10.000Z,1012
2023-04-26T08:19:26.000Z,1012
2023-04-26T08:20:43.000Z,1012
2023-04-26T08:23:15.000Z,1012
2023-04-26T08:24:31.000Z,1012
2023-04-26T08:25:48.000Z,1012
2023-04-26T08:27:04.000Z,1011.9
2023-04-26T08:28:20.000Z,1011.9
2023-04-26T08:29:36.000Z,1011.9
2023-04-26T08:30:53.000Z,1011.9
2023-04-26T08:32:08.000Z,1011.9
2023-04-26T08:33:24.000Z,1011.8
2023-04-26T08:34:40.000Z,1011.9
2023-04-26T08:35:57.000Z,1011.8
2023-04-26T08:37:13.000Z,1011.9
2023-04-26T08:38:28.000Z,1011.9
2023-04-26T08:39:44.000Z,1011.9
2023-04-26T08:41:00.000Z,1011.9
2023-04-26T08:42:17.000Z,1011.9
2023-04-26T08:43:33.000Z,1011.9
2023-04-26T08:44:49.000Z,1011.9
2023-04-26T08:46:06.191Z,1012
2023-04-26T08:47:22.000Z,1011.9
2023-04-26T08:48:38.653Z,1011.9
2023-04-26T08:49:54.000Z,1011.9
2023-04-26T08:51:10.000Z,1011.9
2023-04-26T08:52:27.000Z,1011.9
2023-04-26T08:53:43.000Z,1011.9
2023-04-26T08:54:58.000Z,1011.9
2023-04-26T08:56:14.000Z,1012
2023-04-26T08:57:31.000Z,1012
2023-04-26T08:58:47.000Z,1012
2023-04-26T09:00:03.751Z,1012
2023-04-26T09:01:19.000Z,1012
2023-04-26T09:02:35.000Z,1012
2023-04-26T09:03:52.000Z,1012.1
2023-04-26T09:05:08.000Z,1012
2023-04-26T09:06:24.000Z,1012
2023-04-26T09:07:40.000Z,1012
2023-04-26T09:08:57.000Z,1012
2023-04-26T09:10:13.000Z,1012.1
2023-04-26T09:11:28.000Z,1012.1
2023-04-26T09:12:44.000Z,1012.1
2023-04-26T09:14:01.358Z,1012
2023-04-26T09:15:17.000Z,1012
2023-04-26T09:16:33.568Z,1012
2023-04-26T09:17:49.000Z,1012
2023-04-26T09:19:06.000Z,1012
2023-04-26T09:20:22.000Z,1012
2023-04-26T09:21:38.750Z,1012
2023-04-26T09:22:54.000Z,1012
2023-04-26T09:24:10.000Z,1011.9
2023-04-26T09:26:43.684Z,1012
2023-04-26T09:27:58.000Z,1012
2023-04-26T09:29:14.000Z,1012
2023-04-26T09:30:31.000Z,1011.9
2023-04-26T09:31:47.000Z,1012
2023-04-26T09:33:03.000Z,1012
2023-04-26T09:34:19.000Z,1012
2023-04-26T09:35:36.000Z,1012
2023-04-26T09:36:52.595Z,1012
2023-04-26T09:38:08.000Z,1012
2023-04-26T09:39:24.000Z,1012
2023-04-26T09:40:41.000Z,1012
2023-04-26T09:41:57.000Z,1012
2023-04-26T09:43:13.000Z,1011.9
2023-04-26T09:44:28.988Z,1011.9
2023-04-26T09:45:44.000Z,1011.9
2023-04-26T09:47:01.000Z,1011.9
2023-04-26T09:48:17.000Z,1011.9
2023-04-26T09:49:33.000Z,1011.9
2023-04-26T09:52:06.370Z,1011.9
2023-04-26T09:53:22.000Z,1011.9
2023-04-26T09:54:38.000Z,1011.9
2023-04-26T09:55:54.000Z,1011.9
2023-04-26T09:57:11.000Z,1011.9
2023-04-26T09:58:27.000Z,1011.9
2023-04-26T09:59:43.789Z,1011.9
2023-04-26T10:00:58.000Z,1011.9
2023-04-26T10:02:15.000Z,1011.9
2023-04-26T10:04:47.000Z,1012
2023-04-26T10:06:03.000Z,1011.9
2023-04-26T10:07:19.000Z,1012
2023-04-26T10:08:36.000Z,1012
2023-04-26T10:09:52.000Z,1011.9
2023-04-26T10:11:08.000Z,1011.9
2023-04-26T10:12:24.000Z,1011.9
2023-04-26T10:13:41.000Z,1011.9
2023-04-26T10:14:57.581Z,1011.9
2023-04-26T10:16:13.000Z,1011.9
2023-04-26T10:17:28.000Z,1011.9
2023-04-26T10:18:45.000Z,1011.9
2023-04-26T10:20:01.000Z,1011.9
2023-04-26T10:21:17.000Z,1011.9
2023-04-26T10:22:33.989Z,1011.8
2023-04-26T10:23:49.000Z,1011.9
2023-04-26T10:25:06.000Z,1011.8
2023-04-26T10:26:22.000Z,1011.8
2023-04-26T10:27:38.953Z,1011.8
2023-04-26T10:28:54.000Z,1011.8
2023-04-26T10:30:11.411Z,1011.8
2023-04-26T10:31:27.000Z,1011.7
2023-04-26T10:32:43.000Z,1011.8
2023-04-26T10:33:58.000Z,1011.7
2023-04-26T10:35:15.000Z,1011.7
2023-04-26T10:36:31.000Z,1011.7
2023-04-26T10:37:47.832Z,1011.7
2023-04-26T10:39:03.000Z,1011.7
2023-04-26T10:40:20.000Z,1011.7
2023-04-26T10:41:36.000Z,1011.7
2023-04-26T10:42:52.000Z,1011.7
2023-04-26T10:44:08.000Z,1011.7
2023-04-26T10:45:24.000Z,1011.7
2023-04-26T10:46:41.000Z,1011.7
2023-04-26T10:47:57.686Z,1011.6
2023-04-26T10:49:13.000Z,1011.6
2023-04-26T10:51:45.000Z,1011.6
2023-04-26T10:53:01.650Z,1011.6
2023-04-26T10:55:33.000Z,1011.6
2023-04-26T10:56:50.000Z,1011.6
2023-04-26T10:58:06.000Z,1011.6
2023-04-26T10:59:22.000Z,1011.6
2023-04-26T11:00:38.000Z,1011.6
2023-04-26T11:01:55.000Z,1011.6
2023-04-26T11:03:11.000Z,1011.6
2023-04-26T11:04:27.000Z,1011.6
2023-04-26T11:05:43.000Z,1011.6
2023-04-26T11:06:58.000Z,1011.5
2023-04-26T11:08:15.000Z,1011.7
2023-04-26T11:09:31.000Z,1011.6
2023-04-26T11:10:47.918Z,1011.6
2023-04-26T11:12:03.000Z,1011.6
2023-04-26T11:13:20.000Z,1011.7
2023-04-26T11:14:36.000Z,1011.6
2023-04-26T11:15:52.000Z,1011.6
2023-04-26T11:17:07.000Z,1011.6
2023-04-26T11:18:23.000Z,1011.7
2023-04-26T11:19:39.000Z,1011.6
2023-04-26T11:20:55.000Z,1011.6
2023-04-26T11:22:10.000Z,1011.6
2023-04-26T11:23:26.344Z,1011.6
2023-04-26T11:24:42.000Z,1011.6
2023-04-26T11:25:58.000Z,1011.6
2023-04-26T11:27:14.000Z,1011.6
2023-04-26T11:28:31.000Z,1011.6
2023-04-26T11:29:47.000Z,1011.6
2023-04-26T11:31:03.000Z,1011.5
2023-04-26T11:33:35.000Z,1011.6
2023-04-26T11:34:52.000Z,1011.5
2023-04-26T11:36:08.000Z,1011.5
2023-04-26T11:37:24.000Z,1011.5
2023-04-26T11:38:40.000Z,1011.5
2023-04-26T11:39:56.000Z,1011.5
2023-04-26T11:41:12.000Z,1011.6
2023-04-26T11:42:28.000Z,1011.5
2023-04-26T11:43:44.000Z,1011.5
2023-04-26T11:45:01.000Z,1011.5
2023-04-26T11:46:17.000Z,1011.6
2023-04-26T11:47:33.790Z,1011.6
2023-04-26T11:48:49.000Z,1011.5
2023-04-26T11:50:05.000Z,1011.6
2023-04-26T11:51:20.000Z,1011.6
2023-04-26T11:52:36.000Z,1011.6
2023-04-26T11:53:52.000Z,1011.6
2023-04-26T11:55:08.000Z,1011.7
2023-04-26T11:56:23.000Z,1011.6
2023-04-26T11:57:39.754Z,1011.6
2023-04-26T11:58:55.000Z,1011.6
2023-04-26T12:00:11.000Z,1011.6
2023-04-26T12:01:28.000Z,1011.7
2023-04-26T12:02:44.000Z,1011.6
2023-04-26T12:04:00.000Z,1011.6
2023-04-26T12:05:16.000Z,1011.6
2023-04-26T12:06:33.000Z,1011.6
2023-04-26T12:07:49.000Z,1011.6
2023-04-26T12:09:05.831Z,1011.6
2023-04-26T12:10:22.097Z,1011.6
2023-04-26T12:11:38.000Z,1011.7
2023-04-26T12:12:53.563Z,1011.6
2023-04-26T12:14:09.000Z,1011.6
2023-04-26T12:15:25.000Z,1011.6
2023-04-26T12:16:42.280Z,1011.6
2023-04-26T12:17:58.000Z,1011.7
2023-04-26T12:19:14.000Z,1011.7
2023-04-26T12:20:30.000Z,1011.7
2023-04-26T12:21:46.000Z,1011.7
2023-04-26T12:23:03.000Z,1011.7
2023-04-26T12:24:19.650Z,1011.7
2023-04-26T12:25:35.000Z,1011.7
2023-04-26T12:26:51.000Z,1011.7
2023-04-26T12:28:08.000Z,1011.7
2023-04-26T12:29:23.000Z,1011.7
2023-04-26T12:30:39.000Z,1011.7
2023-04-26T12:31:56.063Z,1011.8
2023-04-26T12:33:12.000Z,1011.7
2023-04-26T12:34:28.532Z,1011.8
2023-04-26T12:35:44.000Z,1011.8
2023-04-26T12:37:00.000Z,1011.8
2023-04-26T12:38:16.000Z,1011.7
2023-04-26T12:39:33.000Z,1011.8
2023-04-26T12:40:49.000Z,1011.8
2023-04-26T12:42:05.953Z,1011.8
2023-04-26T12:43:21.000Z,1011.8
2023-04-26T12:44:38.000Z,1011.8
2023-04-26T12:45:53.000Z,1011.8
2023-04-26T12:47:09.876Z,1011.8
2023-04-26T12:48:26.103Z,1011.8
2023-04-26T12:49:42.000Z,1011.8
2023-04-26T12:50:58.000Z,1011.8
2023-04-26T12:52:14.000Z,1011.9
2023-04-26T12:53:30.107Z,1011.9
2023-04-26T12:54:46.307Z,1011.9
2023-04-26T12:56:02.000Z,1011.9
2023-04-26T12:57:18.000Z,1011.9
2023-04-26T12:58:34.000Z,1011.9
2023-04-26T12:59:50.000Z,1011.9
2023-04-26T13:01:07.000Z,1011.9
2023-04-26T13:02:23.693Z,1011.9
2023-04-26T13:03:39.000Z,1011.9
2023-04-26T13:04:55.000Z,1011.9
2023-04-26T13:06:12.399Z,1011.9
2023-04-26T13:07:28.000Z,1011.8
2023-04-26T13:08:44.000Z,1011.9
2023-04-26T13:10:00.125Z,1011.9
2023-04-26T13:11:16.000Z,1011.9
2023-04-26T13:12:32.000Z,1011.9
2023-04-26T13:13:48.000Z,1011.9
2023-04-26T13:15:04.000Z,1011.9
2023-04-26T13:16:21.000Z,1011.9
2023-04-26T13:17:37.000Z,1011.9
2023-04-26T13:18:53.751Z,1011.9
2023-04-26T13:20:10.000Z,1011.9
2023-04-26T13:21:25.000Z,1011.9
2023-04-26T13:22:42.000Z,1011.9
2023-04-26T13:23:58.000Z,1011.9
2023-04-26T13:25:14.921Z,1011.9
2023-04-26T13:26:29.000Z,1011.9
2023-04-26T13:27:46.000Z,1011.9
2023-04-26T13:29:02.000Z,1011.9
2023-04-26T13:30:18.850Z,1011.9
2023-04-26T13:31:34.000Z,1011.9
2023-04-26T13:32:51.329Z,1011.9
2023-04-26T13:34:07.000Z,1011.9
2023-04-26T13:35:23.000Z,1011.9
2023-04-26T13:36:39.000Z,1011.9
2023-04-26T13:37:56.000Z,1011.8
2023-04-26T13:39:12.000Z,1011.8
2023-04-26T13:40:28.742Z,1011.8
2023-04-26T13:41:44.000Z,1011.8
2023-04-26T13:42:59.000Z,1011.8
2023-04-26T13:44:16.461Z,1011.8
2023-04-26T13:45:32.000Z,1011.8
2023-04-26T13:46:48.000Z,1011.8
2023-04-26T13:48:05.172Z,1011.8
2023-04-26T13:49:21.000Z,1011.8
2023-04-26T13:50:37.000Z,1011.8
2023-04-26T13:51:53.846Z,1011.8
2023-04-26T13:53:10.073Z,1011.8
2023-04-26T13:54:25.000Z,1011.7
2023-04-26T13:55:40.586Z,1011.8
2023-04-26T13:56:56.000Z,1011.8
2023-04-26T13:58:11.000Z,1011.8
2023-04-26T13:59:27.000Z,1011.8
2023-04-26T14:00:43.000Z,1011.8
2023-04-26T14:01:59.000Z,1011.8
2023-04-26T14:03:15.000Z,1011.8
2023-04-26T14:04:32.000Z,1011.8
2023-04-26T14:05:48.000Z,1011.9
2023-04-26T14:07:04.000Z,1011.8
2023-04-26T14:08:20.978Z,1011.8
2023-04-26T14:09:36.000Z,1011.8
2023-04-26T14:12:09.000Z,1011.8
2023-04-26T14:13:25.897Z,1011.8
2023-04-26T14:14:41.000Z,1011.8
2023-04-26T14:15:57.000Z,1011.7
2023-04-26T14:17:13.612Z,1011.7
2023-04-26T14:18:29.000Z,1011.7
2023-04-26T14:19:45.000Z,1011.7
2023-04-26T14:21:02.000Z,1011.7
2023-04-26T14:22:18.000Z,1011.7
2023-04-26T14:23:34.803Z,1011.7
2023-04-26T14:24:50.000Z,1011.8
2023-04-26T14:26:07.251Z,1011.7
2023-04-26T14:27:23.000Z,1011.7
2023-04-26T14:28:39.000Z,1011.7
2023-04-26T14:29:55.963Z,1011.7
2023-04-26T14:31:11.000Z,1011.7
2023-04-26T14:32:27.000Z,1011.6
2023-04-26T14:33:43.661Z,1011.7
2023-04-26T14:34:59.000Z,1011.6
2023-04-26T14:36:15.000Z,1011.6
2023-04-26T14:37:32.000Z,1011.6
2023-04-26T14:38:48.000Z,1011.6
2023-04-26T14:40:04.000Z,1011.6
2023-04-26T14:41:21.000Z,1011.6
2023-04-26T14:43:53.000Z,1011.6
2023-04-26T14:45:09.000Z,1011.7
2023-04-26T14:46:25.000Z,1011.6
2023-04-26T14:47:41.000Z,1011.7
2023-04-26T14:48:57.000Z,1011.6
2023-04-26T14:50:13.000Z,1011.7
2023-04-26T14:51:29.000Z,1011.6
2023-04-26T14:52:45.000Z,1011.6
2023-04-26T14:54:02.000Z,1011.6
2023-04-26T14:55:18.000Z,1011.6
2023-04-26T14:56:34.000Z,1011.6
2023-04-26T14:57:51.101Z,1011.5
2023-04-26T14:59:07.000Z,1011.6
2023-04-26T15:00:23.000Z,1011.6
2023-04-26T15:01:39.000Z,1011.6
2023-04-26T15:02:55.000Z,1011.5
2023-04-26T15:04:12.000Z,1011.6
2023-04-26T15:05:27.000Z,1011.6
2023-04-26T15:06:43.000Z,1011.6
2023-04-26T15:07:59.999Z,1011.6
2023-04-26T15:09:15.000Z,1011.6
2023-04-26T15:10:32.000Z,1011.6
2023-04-26T15:11:48.000Z,1011.6
2023-04-26T15:13:04.000Z,1011.5
2023-04-26T15:14:21.148Z,1011.5
2023-04-26T15:15:37.000Z,1011.5
2023-04-26T15:16:53.000Z,1011.5
2023-04-26T15:18:09.000Z,1011.5
2023-04-26T15:19:25.000Z,1011.5
2023-04-26T15:20:42.337Z,1011.4
2023-04-26T15:21:58.000Z,1011.4
2023-04-26T15:23:13.000Z,1011.4
2023-04-26T15:24:29.000Z,1011.4
2023-04-26T15:25:46.000Z,1011.4
2023-04-26T15:27:02.000Z,1011.4
2023-04-26T15:28:18.000Z,1011.4
2023-04-26T15:29:34.000Z,1011.4
2023-04-26T15:30:50.000Z,1011.4
2023-04-26T15:32:07.000Z,1011.4
2023-04-26T15:33:23.000Z,1011.4
2023-04-26T15:34:39.000Z,1011.4
2023-04-26T15:35:55.000Z,1011.4
2023-04-26T15:37:12.000Z,1011.5
2023-04-26T15:38:28.000Z,1011.4
2023-04-26T15:39:43.000Z,1011.4
2023-04-26T15:40:59.000Z,1011.4
2023-04-26T15:42:16.000Z,1011.5
2023-04-26T15:43:32.000Z,1011.5
2023-04-26T15:44:48.000Z,1011.5
2023-04-26T15:46:04.000Z,1011.5
2023-04-26T15:47:21.000Z,1011.5
2023-04-26T15:48:37.000Z,1011.5
2023-04-26T15:49:53.739Z,1011.5
2023-04-26T15:51:09.000Z,1011.4
2023-04-26T15:52:25.000Z,1011.4
2023-04-26T15:53:42.000Z,1011.4
2023-04-26T15:54:58.000Z,1011.4
2023-04-26T15:56:13.000Z,1011.4
2023-04-26T15:57:29.000Z,1011.4
2023-04-26T15:58:46.000Z,1011.4
2023-04-26T16:00:02.587Z,1011.4
2023-04-26T16:01:18.000Z,1011.4
2023-04-26T16:02:34.000Z,1011.4
2023-04-26T16:03:51.000Z,1011.4
2023-04-26T16:05:07.000Z,1011.4
2023-04-26T16:06:23.000Z,1011.5
2023-04-26T16:07:39.000Z,1011.5
2023-04-26T16:08:55.000Z,1011.5
2023-04-26T16:10:12.000Z,1011.5